sensor_id;sensor_type;location;lat;lon;timestamp;P1;durP1;ratioP1;P2;durP2;ratioP2
24857;SDS011;12935;50.782;6.074;2022-11-03T00:01:48;119.57;;;91.60;;
24857;SDS011;12935;50.782;6.074;2022-11-03T00:04:18;135.45;;;95.07;;
24857;SDS011;12935;50.782;6.074;2022-11-03T00:06:46;122.07;;;92.70;;
24857;SDS011;12935;50.782;6.074;2022-11-03T00:09:13;109.18;;;90.95;;
24857;SDS011;12935;50.782;6.074;2022-11-03T00:11:40;124.88;;;92.65;;
24857;SDS011;12935;50.782;6.074;2022-11-03T00:14:07;108.87;;;90.57;;
24857;SDS011;12935;50.782;6.074;2022-11-03T00:16:34;116.43;;;92.13;;
24857;SDS011;12935;50.782;6.074;2022-11-03T00:19:00;133.75;;;91.47;;
24857;SDS011;12935;50.782;6.074;2022-11-03T00:21:25;131.47;;;97.60;;
24857;SDS011;12935;50.782;6.074;2022-11-03T00:23:51;146.47;;;103.80;;
24857;SDS011;12935;50.782;6.074;2022-11-03T00:28:50;158.60;;;103.82;;
24857;SDS011;12935;50.782;6.074;2022-11-03T00:31:18;115.75;;;92.28;;
24857;SDS011;12935;50.782;6.074;2022-11-03T00:33:45;120.95;;;94.85;;
24857;SDS011;12935;50.782;6.074;2022-11-03T00:36:12;136.30;;;98.90;;
24857;SDS011;12935;50.782;6.074;2022-11-03T00:38:39;103.38;;;88.97;;
24857;SDS011;12935;50.782;6.074;2022-11-03T00:41:05;133.03;;;98.00;;
24857;SDS011;12935;50.782;6.074;2022-11-03T00:43:31;142.68;;;101.38;;
24857;SDS011;12935;50.782;6.074;2022-11-03T00:45:58;131.23;;;96.70;;
24857;SDS011;12935;50.782;6.074;2022-11-03T00:48:24;111.67;;;90.80;;
24857;SDS011;12935;50.782;6.074;2022-11-03T00:53:27;131.52;;;94.60;;
24857;SDS011;12935;50.782;6.074;2022-11-03T00:55:53;125.60;;;96.70;;
24857;SDS011;12935;50.782;6.074;2022-11-03T00:58:18;111.37;;;91.53;;
24857;SDS011;12935;50.782;6.074;2022-11-03T01:00:44;127.23;;;94.83;;
24857;SDS011;12935;50.782;6.074;2022-11-03T01:03:09;115.40;;;94.30;;
24857;SDS011;12935;50.782;6.074;2022-11-03T01:05:38;119.67;;;93.73;;
24857;SDS011;12935;50.782;6.074;2022-11-03T01:08:32;125.47;;;96.33;;
24857;SDS011;12935;50.782;6.074;2022-11-03T01:11:06;137.87;;;98.10;;
24857;SDS011;12935;50.782;6.074;2022-11-03T01:13:54;131.55;;;96.28;;
24857;SDS011;12935;50.782;6.074;2022-11-03T01:16:20;112.97;;;92.27;;
24857;SDS011;12935;50.782;6.074;2022-11-03T01:18:46;153.23;;;102.13;;
24857;SDS011;12935;50.782;6.074;2022-11-03T01:21:11;153.10;;;102.83;;
24857;SDS011;12935;50.782;6.074;2022-11-03T01:23:37;128.17;;;95.40;;
24857;SDS011;12935;50.782;6.074;2022-11-03T01:26:03;134.57;;;96.77;;
24857;SDS011;12935;50.782;6.074;2022-11-03T01:28:29;157.27;;;102.20;;
24857;SDS011;12935;50.782;6.074;2022-11-03T01:30:55;118.03;;;94.60;;
24857;SDS011;12935;50.782;6.074;2022-11-03T01:33:20;139.60;;;101.60;;
24857;SDS011;12935;50.782;6.074;2022-11-03T01:35:45;123.23;;;94.97;;
24857;SDS011;12935;50.782;6.074;2022-11-03T01:38:11;115.53;;;91.53;;
24857;SDS011;12935;50.782;6.074;2022-11-03T01:40:36;137.37;;;98.60;;
24857;SDS011;12935;50.782;6.074;2022-11-03T01:43:21;105.27;;;91.50;;
24857;SDS011;12935;50.782;6.074;2022-11-03T01:46:01;137.45;;;97.45;;
24857;SDS011;12935;50.782;6.074;2022-11-03T01:48:33;136.73;;;100.78;;
24857;SDS011;12935;50.782;6.074;2022-11-03T01:51:00;137.70;;;96.90;;
24857;SDS011;12935;50.782;6.074;2022-11-03T01:53:28;111.87;;;92.37;;
24857;SDS011;12935;50.782;6.074;2022-11-03T01:55:54;119.87;;;92.67;;
24857;SDS011;12935;50.782;6.074;2022-11-03T01:58:22;139.70;;;99.83;;
24857;SDS011;12935;50.782;6.074;2022-11-03T02:00:55;108.67;;;90.80;;
24857;SDS011;12935;50.782;6.074;2022-11-03T02:03:23;116.07;;;94.53;;
24857;SDS011;12935;50.782;6.074;2022-11-03T02:05:51;119.63;;;96.03;;
24857;SDS011;12935;50.782;6.074;2022-11-03T02:08:20;152.43;;;105.45;;
24857;SDS011;12935;50.782;6.074;2022-11-03T02:10:49;136.63;;;99.57;;
24857;SDS011;12935;50.782;6.074;2022-11-03T02:13:20;148.00;;;103.00;;
24857;SDS011;12935;50.782;6.074;2022-11-03T02:15:47;112.82;;;93.70;;
24857;SDS011;12935;50.782;6.074;2022-11-03T02:18:15;136.85;;;100.70;;
24857;SDS011;12935;50.782;6.074;2022-11-03T02:20:42;162.60;;;107.65;;
24857;SDS011;12935;50.782;6.074;2022-11-03T02:25:51;137.30;;;99.80;;
24857;SDS011;12935;50.782;6.074;2022-11-03T02:28:20;133.23;;;100.38;;
24857;SDS011;12935;50.782;6.074;2022-11-03T02:33:31;122.80;;;95.70;;
24857;SDS011;12935;50.782;6.074;2022-11-03T02:36:09;115.83;;;94.17;;
24857;SDS011;12935;50.782;6.074;2022-11-03T02:38:44;138.50;;;99.38;;
24857;SDS011;12935;50.782;6.074;2022-11-03T02:41:14;176.25;;;100.75;;
24857;SDS011;12935;50.782;6.074;2022-11-03T02:43:41;121.82;;;96.13;;
24857;SDS011;12935;50.782;6.074;2022-11-03T02:46:08;118.35;;;95.63;;
24857;SDS011;12935;50.782;6.074;2022-11-03T02:48:37;124.75;;;96.47;;
24857;SDS011;12935;50.782;6.074;2022-11-03T02:51:02;128.53;;;97.60;;
24857;SDS011;12935;50.782;6.074;2022-11-03T02:53:28;123.47;;;96.47;;
24857;SDS011;12935;50.782;6.074;2022-11-03T02:55:58;113.40;;;93.70;;
24857;SDS011;12935;50.782;6.074;2022-11-03T03:01:07;126.50;;;98.43;;
24857;SDS011;12935;50.782;6.074;2022-11-03T03:03:46;117.60;;;95.47;;
24857;SDS011;12935;50.782;6.074;2022-11-03T03:06:19;130.02;;;98.88;;
24857;SDS011;12935;50.782;6.074;2022-11-03T03:08:50;102.10;;;89.78;;
24857;SDS011;12935;50.782;6.074;2022-11-03T03:11:18;142.05;;;100.78;;
24857;SDS011;12935;50.782;6.074;2022-11-03T03:14:02;140.20;;;99.90;;
24857;SDS011;12935;50.782;6.074;2022-11-03T03:16:29;117.37;;;103.70;;
24857;SDS011;12935;50.782;6.074;2022-11-03T03:19:06;110.03;;;92.27;;
24857;SDS011;12935;50.782;6.074;2022-11-03T03:21:42;162.82;;;105.53;;
24857;SDS011;12935;50.782;6.074;2022-11-03T03:24:18;137.70;;;99.20;;
24857;SDS011;12935;50.782;6.074;2022-11-03T03:26:50;149.60;;;102.55;;
24857;SDS011;12935;50.782;6.074;2022-11-03T03:29:19;118.13;;;96.65;;
24857;SDS011;12935;50.782;6.074;2022-11-03T03:32:00;105.80;;;92.50;;
24857;SDS011;12935;50.782;6.074;2022-11-03T03:34:30;134.15;;;98.20;;
24857;SDS011;12935;50.782;6.074;2022-11-03T03:36:58;132.70;;;97.73;;
24857;SDS011;12935;50.782;6.074;2022-11-03T03:39:25;123.50;;;96.70;;
24857;SDS011;12935;50.782;6.074;2022-11-03T03:41:54;137.13;;;99.60;;
24857;SDS011;12935;50.782;6.074;2022-11-03T03:44:21;125.80;;;97.70;;
24857;SDS011;12935;50.782;6.074;2022-11-03T03:46:50;129.80;;;99.63;;
24857;SDS011;12935;50.782;6.074;2022-11-03T03:49:20;131.32;;;99.63;;
24857;SDS011;12935;50.782;6.074;2022-11-03T03:51:45;115.90;;;94.90;;
24857;SDS011;12935;50.782;6.074;2022-11-03T03:54:13;115.68;;;94.07;;
24857;SDS011;12935;50.782;6.074;2022-11-03T03:56:40;103.90;;;91.23;;
24857;SDS011;12935;50.782;6.074;2022-11-03T03:59:26;141.40;;;105.23;;
24857;SDS011;12935;50.782;6.074;2022-11-03T04:01:52;114.87;;;93.80;;
24857;SDS011;12935;50.782;6.074;2022-11-03T04:04:17;133.17;;;100.43;;
24857;SDS011;12935;50.782;6.074;2022-11-03T04:06:42;126.33;;;96.43;;
24857;SDS011;12935;50.782;6.074;2022-11-03T04:09:08;136.13;;;99.50;;
24857;SDS011;12935;50.782;6.074;2022-11-03T04:11:33;110.53;;;94.13;;
24857;SDS011;12935;50.782;6.074;2022-11-03T04:14:18;144.75;;;95.03;;
24857;SDS011;12935;50.782;6.074;2022-11-03T04:17:02;116.72;;;95.70;;
24857;SDS011;12935;50.782;6.074;2022-11-03T04:19:46;116.25;;;95.32;;
24857;SDS011;12935;50.782;6.074;2022-11-03T04:22:31;153.45;;;106.05;;
24857;SDS011;12935;50.782;6.074;2022-11-03T04:24:57;127.85;;;94.20;;
24857;SDS011;12935;50.782;6.074;2022-11-03T04:27:27;152.70;;;98.93;;
24857;SDS011;12935;50.782;6.074;2022-11-03T04:30:01;133.43;;;103.68;;
24857;SDS011;12935;50.782;6.074;2022-11-03T04:32:49;151.95;;;136.25;;
24857;SDS011;12935;50.782;6.074;2022-11-03T04:35:19;139.20;;;97.13;;
24857;SDS011;12935;50.782;6.074;2022-11-03T04:37:47;112.97;;;96.93;;
24857;SDS011;12935;50.782;6.074;2022-11-03T04:40:18;129.38;;;97.85;;
24857;SDS011;12935;50.782;6.074;2022-11-03T04:42:43;132.87;;;96.80;;
24857;SDS011;12935;50.782;6.074;2022-11-03T04:45:19;120.38;;;95.53;;
24857;SDS011;12935;50.782;6.074;2022-11-03T04:47:47;139.93;;;99.57;;
24857;SDS011;12935;50.782;6.074;2022-11-03T04:50:14;146.30;;;100.90;;
24857;SDS011;12935;50.782;6.074;2022-11-03T04:52:43;116.18;;;91.50;;
24857;SDS011;12935;50.782;6.074;2022-11-03T04:55:11;117.53;;;104.38;;
24857;SDS011;12935;50.782;6.074;2022-11-03T04:57:39;109.97;;;92.95;;
24857;SDS011;12935;50.782;6.074;2022-11-03T05:00:05;125.27;;;96.27;;
24857;SDS011;12935;50.782;6.074;2022-11-03T05:02:31;142.15;;;99.75;;
24857;SDS011;12935;50.782;6.074;2022-11-03T05:04:57;128.07;;;97.13;;
24857;SDS011;12935;50.782;6.074;2022-11-03T05:07:33;111.13;;;90.53;;
24857;SDS011;12935;50.782;6.074;2022-11-03T05:10:00;129.60;;;95.73;;
24857;SDS011;12935;50.782;6.074;2022-11-03T05:12:26;124.07;;;94.05;;
24857;SDS011;12935;50.782;6.074;2022-11-03T05:14:54;106.95;;;90.75;;
24857;SDS011;12935;50.782;6.074;2022-11-03T05:17:23;164.33;;;105.30;;
24857;SDS011;12935;50.782;6.074;2022-11-03T05:20:00;104.17;;;90.13;;
24857;SDS011;12935;50.782;6.074;2022-11-03T05:22:28;129.97;;;95.33;;
24857;SDS011;12935;50.782;6.074;2022-11-03T05:25:01;113.78;;;92.65;;
24857;SDS011;12935;50.782;6.074;2022-11-03T05:27:34;117.13;;;94.00;;
24857;SDS011;12935;50.782;6.074;2022-11-03T05:30:00;122.10;;;94.30;;
24857;SDS011;12935;50.782;6.074;2022-11-03T05:32:29;148.70;;;99.70;;
24857;SDS011;12935;50.782;6.074;2022-11-03T05:34:57;119.55;;;93.85;;
24857;SDS011;12935;50.782;6.074;2022-11-03T05:39:51;106.80;;;90.15;;
24857;SDS011;12935;50.782;6.074;2022-11-03T05:44:51;108.85;;;92.30;;
24857;SDS011;12935;50.782;6.074;2022-11-03T05:49:55;118.43;;;95.03;;
24857;SDS011;12935;50.782;6.074;2022-11-03T05:52:26;134.88;;;99.25;;
24857;SDS011;12935;50.782;6.074;2022-11-03T05:54:55;116.22;;;94.65;;
24857;SDS011;12935;50.782;6.074;2022-11-03T05:57:23;130.60;;;97.80;;
24857;SDS011;12935;50.782;6.074;2022-11-03T05:59:52;126.30;;;95.63;;
24857;SDS011;12935;50.782;6.074;2022-11-03T06:05:14;116.77;;;94.63;;
24857;SDS011;12935;50.782;6.074;2022-11-03T06:07:45;110.63;;;91.72;;
24857;SDS011;12935;50.782;6.074;2022-11-03T06:10:35;112.65;;;94.78;;
24857;SDS011;12935;50.782;6.074;2022-11-03T06:13:16;123.97;;;94.67;;
24857;SDS011;12935;50.782;6.074;2022-11-03T06:15:45;117.63;;;94.45;;
24857;SDS011;12935;50.782;6.074;2022-11-03T06:18:13;132.38;;;96.65;;
24857;SDS011;12935;50.782;6.074;2022-11-03T06:20:43;119.15;;;94.63;;
24857;SDS011;12935;50.782;6.074;2022-11-03T06:23:14;125.90;;;97.70;;
24857;SDS011;12935;50.782;6.074;2022-11-03T06:25:42;123.75;;;94.93;;
24857;SDS011;12935;50.782;6.074;2022-11-03T06:28:10;119.30;;;95.40;;
24857;SDS011;12935;50.782;6.074;2022-11-03T06:30:40;165.57;;;102.30;;
24857;SDS011;12935;50.782;6.074;2022-11-03T06:33:26;136.87;;;99.10;;
24857;SDS011;12935;50.782;6.074;2022-11-03T06:35:54;105.45;;;91.95;;
24857;SDS011;12935;50.782;6.074;2022-11-03T06:38:24;118.10;;;95.28;;
24857;SDS011;12935;50.782;6.074;2022-11-03T06:40:53;126.00;;;97.63;;
24857;SDS011;12935;50.782;6.074;2022-11-03T06:43:23;119.10;;;96.60;;
24857;SDS011;12935;50.782;6.074;2022-11-03T06:46:01;152.10;;;102.20;;
24857;SDS011;12935;50.782;6.074;2022-11-03T06:48:33;131.93;;;97.35;;
24857;SDS011;12935;50.782;6.074;2022-11-03T06:50:59;132.38;;;101.30;;
24857;SDS011;12935;50.782;6.074;2022-11-03T06:53:28;134.97;;;100.87;;
24857;SDS011;12935;50.782;6.074;2022-11-03T06:55:57;136.70;;;100.70;;
24857;SDS011;12935;50.782;6.074;2022-11-03T06:58:24;112.97;;;94.50;;
24857;SDS011;12935;50.782;6.074;2022-11-03T07:00:54;201.95;;;120.85;;
24857;SDS011;12935;50.782;6.074;2022-11-03T07:03:25;115.45;;;94.95;;
24857;SDS011;12935;50.782;6.074;2022-11-03T07:06:13;133.40;;;98.40;;
24857;SDS011;12935;50.782;6.074;2022-11-03T07:08:48;122.97;;;98.78;;
24857;SDS011;12935;50.782;6.074;2022-11-03T07:11:23;127.97;;;98.13;;
24857;SDS011;12935;50.782;6.074;2022-11-03T07:13:51;131.15;;;98.43;;
24857;SDS011;12935;50.782;6.074;2022-11-03T07:18:48;131.27;;;98.33;;
24857;SDS011;12935;50.782;6.074;2022-11-03T07:30:12;106.55;;;91.97;;
24857;SDS011;12935;50.782;6.074;2022-11-03T07:32:42;113.32;;;92.32;;
24857;SDS011;12935;50.782;6.074;2022-11-03T07:37:44;117.68;;;94.75;;
24857;SDS011;12935;50.782;6.074;2022-11-03T07:40:12;107.53;;;90.75;;
24857;SDS011;12935;50.782;6.074;2022-11-03T07:42:40;111.13;;;91.80;;
24857;SDS011;12935;50.782;6.074;2022-11-03T07:48:21;136.77;;;100.13;;
24857;SDS011;12935;50.782;6.074;2022-11-03T07:50:48;133.37;;;99.07;;
24857;SDS011;12935;50.782;6.074;2022-11-03T07:53:29;124.80;;;95.90;;
24857;SDS011;12935;50.782;6.074;2022-11-03T07:56:01;172.23;;;108.50;;
24857;SDS011;12935;50.782;6.074;2022-11-03T07:58:37;130.53;;;96.53;;
24857;SDS011;12935;50.782;6.074;2022-11-03T08:04:07;121.20;;;96.03;;
24857;SDS011;12935;50.782;6.074;2022-11-03T08:06:36;101.53;;;90.40;;
24857;SDS011;12935;50.782;6.074;2022-11-03T08:09:02;157.87;;;105.40;;
24857;SDS011;12935;50.782;6.074;2022-11-03T08:11:28;124.77;;;95.83;;
24857;SDS011;12935;50.782;6.074;2022-11-03T08:13:54;123.27;;;96.33;;
24857;SDS011;12935;50.782;6.074;2022-11-03T08:16:19;128.80;;;94.90;;
24857;SDS011;12935;50.782;6.074;2022-11-03T08:18:44;125.47;;;96.77;;
24857;SDS011;12935;50.782;6.074;2022-11-03T08:21:10;113.87;;;94.43;;
24857;SDS011;12935;50.782;6.074;2022-11-03T08:23:36;130.33;;;96.03;;
24857;SDS011;12935;50.782;6.074;2022-11-03T08:26:01;144.10;;;101.97;;
24857;SDS011;12935;50.782;6.074;2022-11-03T08:28:26;118.70;;;93.43;;
24857;SDS011;12935;50.782;6.074;2022-11-03T08:30:52;123.47;;;97.63;;
24857;SDS011;12935;50.782;6.074;2022-11-03T08:33:17;143.10;;;104.57;;
24857;SDS011;12935;50.782;6.074;2022-11-03T08:35:43;133.57;;;99.00;;
24857;SDS011;12935;50.782;6.074;2022-11-03T08:38:08;129.03;;;97.80;;
24857;SDS011;12935;50.782;6.074;2022-11-03T08:40:34;143.40;;;103.43;;
24857;SDS011;12935;50.782;6.074;2022-11-03T08:42:59;125.43;;;93.97;;
24857;SDS011;12935;50.782;6.074;2022-11-03T08:45:27;127.43;;;94.30;;
24857;SDS011;12935;50.782;6.074;2022-11-03T08:47:54;118.25;;;95.80;;
24857;SDS011;12935;50.782;6.074;2022-11-03T08:50:20;115.50;;;93.83;;
24857;SDS011;12935;50.782;6.074;2022-11-03T08:52:45;152.67;;;101.87;;
24857;SDS011;12935;50.782;6.074;2022-11-03T08:55:10;121.07;;;94.07;;
24857;SDS011;12935;50.782;6.074;2022-11-03T08:57:36;112.63;;;91.87;;
24857;SDS011;12935;50.782;6.074;2022-11-03T09:00:02;121.80;;;94.93;;
24857;SDS011;12935;50.782;6.074;2022-11-03T09:02:29;124.70;;;99.20;;
24857;SDS011;12935;50.782;6.074;2022-11-03T09:04:55;123.07;;;95.17;;
24857;SDS011;12935;50.782;6.074;2022-11-03T09:07:20;127.17;;;102.03;;
24857;SDS011;12935;50.782;6.074;2022-11-03T09:09:46;137.03;;;97.43;;
24857;SDS011;12935;50.782;6.074;2022-11-03T09:12:11;141.10;;;100.70;;
24857;SDS011;12935;50.782;6.074;2022-11-03T09:14:36;144.23;;;101.97;;
24857;SDS011;12935;50.782;6.074;2022-11-03T09:17:02;130.33;;;99.27;;
24857;SDS011;12935;50.782;6.074;2022-11-03T09:19:27;589.20;;;557.87;;
24857;SDS011;12935;50.782;6.074;2022-11-03T09:21:52;595.83;;;556.03;;
24857;SDS011;12935;50.782;6.074;2022-11-03T09:24:17;600.00;;;559.70;;
24857;SDS011;12935;50.782;6.074;2022-11-03T09:26:43;628.87;;;589.77;;
24857;SDS011;12935;50.782;6.074;2022-11-03T09:29:08;648.43;;;609.67;;
24857;SDS011;12935;50.782;6.074;2022-11-03T09:31:34;682.47;;;633.30;;
24857;SDS011;12935;50.782;6.074;2022-11-03T09:33:59;594.67;;;562.37;;
24857;SDS011;12935;50.782;6.074;2022-11-03T09:36:24;548.97;;;518.17;;
24857;SDS011;12935;50.782;6.074;2022-11-03T09:38:51;552.43;;;519.00;;
24857;SDS011;12935;50.782;6.074;2022-11-03T09:41:16;627.17;;;593.07;;
24857;SDS011;12935;50.782;6.074;2022-11-03T09:43:46;583.03;;;548.83;;
24857;SDS011;12935;50.782;6.074;2022-11-03T09:46:13;559.77;;;529.33;;
24857;SDS011;12935;50.782;6.074;2022-11-03T09:48:41;592.43;;;557.60;;
24857;SDS011;12935;50.782;6.074;2022-11-03T09:51:08;617.47;;;583.10;;
24857;SDS011;12935;50.782;6.074;2022-11-03T09:53:43;583.23;;;548.30;;
24857;SDS011;12935;50.782;6.074;2022-11-03T09:56:09;561.50;;;529.13;;
24857;SDS011;12935;50.782;6.074;2022-11-03T09:58:35;553.23;;;523.93;;
24857;SDS011;12935;50.782;6.074;2022-11-03T10:01:05;563.47;;;531.77;;
24857;SDS011;12935;50.782;6.074;2022-11-03T10:03:32;561.33;;;529.57;;
24857;SDS011;12935;50.782;6.074;2022-11-03T10:05:59;565.27;;;533.83;;
24857;SDS011;12935;50.782;6.074;2022-11-03T10:08:31;514.13;;;484.87;;
24857;SDS011;12935;50.782;6.074;2022-11-03T10:10:59;567.93;;;532.40;;
24857;SDS011;12935;50.782;6.074;2022-11-03T10:13:32;555.53;;;524.30;;
24857;SDS011;12935;50.782;6.074;2022-11-03T10:16:01;583.00;;;548.67;;
24857;SDS011;12935;50.782;6.074;2022-11-03T10:18:29;576.37;;;542.90;;
24857;SDS011;12935;50.782;6.074;2022-11-03T10:20:55;539.27;;;508.90;;
24857;SDS011;12935;50.782;6.074;2022-11-03T10:23:27;524.67;;;493.47;;
24857;SDS011;12935;50.782;6.074;2022-11-03T10:25:55;580.60;;;547.73;;
24857;SDS011;12935;50.782;6.074;2022-11-03T10:28:32;158.40;;;146.20;;
24857;SDS011;12935;50.782;6.074;2022-11-03T10:30:58;129.80;;;98.87;;
24857;SDS011;12935;50.782;6.074;2022-11-03T10:33:49;121.37;;;96.40;;
24857;SDS011;12935;50.782;6.074;2022-11-03T10:38:43;123.83;;;95.80;;
24857;SDS011;12935;50.782;6.074;2022-11-03T10:43:57;141.10;;;99.20;;
24857;SDS011;12935;50.782;6.074;2022-11-03T10:46:40;156.03;;;105.97;;
24857;SDS011;12935;50.782;6.074;2022-11-03T10:49:20;134.67;;;100.00;;
24857;SDS011;12935;50.782;6.074;2022-11-03T10:51:46;131.90;;;98.43;;
24857;SDS011;12935;50.782;6.074;2022-11-03T10:54:14;141.00;;;101.40;;
24857;SDS011;12935;50.782;6.074;2022-11-03T10:56:41;138.07;;;101.80;;
24857;SDS011;12935;50.782;6.074;2022-11-03T10:59:08;161.90;;;106.07;;
24857;SDS011;12935;50.782;6.074;2022-11-03T11:01:41;132.00;;;99.10;;
24857;SDS011;12935;50.782;6.074;2022-11-03T11:04:07;125.97;;;96.47;;
24857;SDS011;12935;50.782;6.074;2022-11-03T11:06:32;132.80;;;103.00;;
24857;SDS011;12935;50.782;6.074;2022-11-03T11:09:02;122.73;;;97.37;;
24857;SDS011;12935;50.782;6.074;2022-11-03T11:11:29;130.70;;;98.53;;
24857;SDS011;12935;50.782;6.074;2022-11-03T11:16:52;138.30;;;101.80;;
24857;SDS011;12935;50.782;6.074;2022-11-03T11:19:22;138.47;;;100.93;;
24857;SDS011;12935;50.782;6.074;2022-11-03T11:21:56;106.90;;;90.90;;
24857;SDS011;12935;50.782;6.074;2022-11-03T11:30:00;551.37;;;520.87;;
24857;SDS011;12935;50.782;6.074;2022-11-03T11:35:00;547.67;;;515.63;;
24857;SDS011;12935;50.782;6.074;2022-11-03T11:39:51;534.87;;;501.97;;
24857;SDS011;12935;50.782;6.074;2022-11-03T11:42:20;516.23;;;484.67;;
24857;SDS011;12935;50.782;6.074;2022-11-03T11:44:49;475.97;;;447.10;;
24857;SDS011;12935;50.782;6.074;2022-11-03T11:52:30;494.13;;;465.20;;
24857;SDS011;12935;50.782;6.074;2022-11-03T11:57:48;475.33;;;445.77;;
24857;SDS011;12935;50.782;6.074;2022-11-03T12:00:20;456.23;;;422.23;;
24857;SDS011;12935;50.782;6.074;2022-11-03T12:02:49;461.00;;;433.00;;
24857;SDS011;12935;50.782;6.074;2022-11-03T12:05:22;358.30;;;335.90;;
24857;SDS011;12935;50.782;6.074;2022-11-03T12:07:52;434.43;;;411.03;;
24857;SDS011;12935;50.782;6.074;2022-11-03T12:10:23;435.33;;;411.30;;
24857;SDS011;12935;50.782;6.074;2022-11-03T12:12:50;374.47;;;350.77;;
24857;SDS011;12935;50.782;6.074;2022-11-03T12:18:36;428.07;;;405.17;;
24857;SDS011;12935;50.782;6.074;2022-11-03T12:21:07;414.77;;;392.17;;
24857;SDS011;12935;50.782;6.074;2022-11-03T12:23:41;417.23;;;392.20;;
24857;SDS011;12935;50.782;6.074;2022-11-03T12:26:14;605.10;;;570.17;;
24857;SDS011;12935;50.782;6.074;2022-11-03T12:28:41;561.17;;;527.13;;
24857;SDS011;12935;50.782;6.074;2022-11-03T12:31:07;81.23;;;73.30;;
24857;SDS011;12935;50.782;6.074;2022-11-03T12:33:32;80.53;;;72.63;;
24857;SDS011;12935;50.782;6.074;2022-11-03T12:35:57;96.10;;;78.27;;
24857;SDS011;12935;50.782;6.074;2022-11-03T12:38:23;78.20;;;70.17;;
24857;SDS011;12935;50.782;6.074;2022-11-03T12:40:48;123.23;;;110.93;;
24857;SDS011;12935;50.782;6.074;2022-11-03T12:43:14;82.23;;;73.30;;
24857;SDS011;12935;50.782;6.074;2022-11-03T12:45:39;76.50;;;68.77;;
24857;SDS011;12935;50.782;6.074;2022-11-03T12:48:05;80.53;;;72.10;;
24857;SDS011;12935;50.782;6.074;2022-11-03T12:50:31;82.13;;;73.97;;
24857;SDS011;12935;50.782;6.074;2022-11-03T12:52:56;84.10;;;74.87;;
24857;SDS011;12935;50.782;6.074;2022-11-03T12:55:22;112.13;;;102.67;;
24857;SDS011;12935;50.782;6.074;2022-11-03T12:57:47;79.10;;;70.43;;
24857;SDS011;12935;50.782;6.074;2022-11-03T13:00:13;83.83;;;74.70;;
24857;SDS011;12935;50.782;6.074;2022-11-03T13:02:39;82.00;;;73.03;;
24857;SDS011;12935;50.782;6.074;2022-11-03T13:05:04;74.67;;;67.23;;
24857;SDS011;12935;50.782;6.074;2022-11-03T13:07:31;99.33;;;77.10;;
24857;SDS011;12935;50.782;6.074;2022-11-03T13:09:56;87.90;;;78.37;;
24857;SDS011;12935;50.782;6.074;2022-11-03T13:12:21;117.67;;;81.93;;
24857;SDS011;12935;50.782;6.074;2022-11-03T13:14:56;86.03;;;74.87;;
24857;SDS011;12935;50.782;6.074;2022-11-03T13:17:23;172.13;;;94.87;;
24857;SDS011;12935;50.782;6.074;2022-11-03T13:19:50;82.20;;;73.30;;
24857;SDS011;12935;50.782;6.074;2022-11-03T13:22:15;105.50;;;80.20;;
24857;SDS011;12935;50.782;6.074;2022-11-03T13:24:41;87.93;;;78.63;;
24857;SDS011;12935;50.782;6.074;2022-11-03T13:27:06;82.67;;;74.13;;
24857;SDS011;12935;50.782;6.074;2022-11-03T13:29:33;89.87;;;80.70;;
24857;SDS011;12935;50.782;6.074;2022-11-03T13:31:58;120.57;;;84.73;;
24857;SDS011;12935;50.782;6.074;2022-11-03T13:34:24;139.87;;;85.83;;
24857;SDS011;12935;50.782;6.074;2022-11-03T13:36:49;119.53;;;81.00;;
24857;SDS011;12935;50.782;6.074;2022-11-03T13:39:14;105.37;;;75.20;;
24857;SDS011;12935;50.782;6.074;2022-11-03T13:41:41;130.83;;;83.43;;
24857;SDS011;12935;50.782;6.074;2022-11-03T13:44:06;133.27;;;83.37;;
24857;SDS011;12935;50.782;6.074;2022-11-03T13:46:32;98.97;;;73.97;;
24857;SDS011;12935;50.782;6.074;2022-11-03T13:48:58;129.40;;;81.50;;
24857;SDS011;12935;50.782;6.074;2022-11-03T13:51:23;127.03;;;84.17;;
24857;SDS011;12935;50.782;6.074;2022-11-03T13:53:48;106.20;;;79.17;;
24857;SDS011;12935;50.782;6.074;2022-11-03T13:56:14;80.87;;;71.70;;
24857;SDS011;12935;50.782;6.074;2022-11-03T13:58:39;109.87;;;79.63;;
24857;SDS011;12935;50.782;6.074;2022-11-03T14:01:04;96.83;;;75.17;;
24857;SDS011;12935;50.782;6.074;2022-11-03T14:03:29;125.50;;;82.20;;
24857;SDS011;12935;50.782;6.074;2022-11-03T14:05:55;113.60;;;80.00;;
24857;SDS011;12935;50.782;6.074;2022-11-03T14:08:20;96.20;;;76.70;;
24857;SDS011;12935;50.782;6.074;2022-11-03T14:10:45;95.43;;;74.70;;
24857;SDS011;12935;50.782;6.074;2022-11-03T14:13:11;168.23;;;95.70;;
24857;SDS011;12935;50.782;6.074;2022-11-03T14:15:36;85.60;;;73.10;;
24857;SDS011;12935;50.782;6.074;2022-11-03T14:18:01;103.27;;;77.03;;
24857;SDS011;12935;50.782;6.074;2022-11-03T14:20:27;100.27;;;80.13;;
24857;SDS011;12935;50.782;6.074;2022-11-03T14:22:52;94.50;;;79.53;;
24857;SDS011;12935;50.782;6.074;2022-11-03T14:25:18;105.23;;;83.90;;
24857;SDS011;12935;50.782;6.074;2022-11-03T14:27:44;105.53;;;82.87;;
24857;SDS011;12935;50.782;6.074;2022-11-03T14:30:11;114.43;;;83.90;;
24857;SDS011;12935;50.782;6.074;2022-11-03T14:32:37;102.83;;;84.63;;
24857;SDS011;12935;50.782;6.074;2022-11-03T14:35:03;85.20;;;75.73;;
24857;SDS011;12935;50.782;6.074;2022-11-03T14:37:29;115.90;;;84.03;;
24857;SDS011;12935;50.782;6.074;2022-11-03T14:39:57;116.83;;;87.63;;
24857;SDS011;12935;50.782;6.074;2022-11-03T14:42:23;103.97;;;82.23;;
24857;SDS011;12935;50.782;6.074;2022-11-03T14:44:48;117.90;;;81.67;;
24857;SDS011;12935;50.782;6.074;2022-11-03T14:47:15;106.47;;;82.20;;
24857;SDS011;12935;50.782;6.074;2022-11-03T14:49:42;107.35;;;80.68;;
24857;SDS011;12935;50.782;6.074;2022-11-03T14:52:07;122.77;;;84.93;;
24857;SDS011;12935;50.782;6.074;2022-11-03T14:54:33;101.80;;;79.10;;
24857;SDS011;12935;50.782;6.074;2022-11-03T14:56:59;107.67;;;80.70;;
24857;SDS011;12935;50.782;6.074;2022-11-03T14:59:26;84.93;;;72.23;;
24857;SDS011;12935;50.782;6.074;2022-11-03T15:01:51;95.23;;;78.27;;
24857;SDS011;12935;50.782;6.074;2022-11-03T15:04:18;113.23;;;79.93;;
24857;SDS011;12935;50.782;6.074;2022-11-03T15:06:44;108.33;;;81.20;;
24857;SDS011;12935;50.782;6.074;2022-11-03T15:09:10;106.87;;;82.43;;
24857;SDS011;12935;50.782;6.074;2022-11-03T15:11:38;114.88;;;84.53;;
24857;SDS011;12935;50.782;6.074;2022-11-03T15:14:04;118.50;;;86.43;;
24857;SDS011;12935;50.782;6.074;2022-11-03T15:16:29;115.90;;;85.43;;
24857;SDS011;12935;50.782;6.074;2022-11-03T15:18:55;119.77;;;85.30;;
24857;SDS011;12935;50.782;6.074;2022-11-03T15:21:20;129.07;;;89.97;;
24857;SDS011;12935;50.782;6.074;2022-11-03T15:23:46;96.47;;;81.20;;
24857;SDS011;12935;50.782;6.074;2022-11-03T15:26:11;104.47;;;85.70;;
24857;SDS011;12935;50.782;6.074;2022-11-03T15:28:37;115.33;;;88.50;;